LEXJ/SDR METAR and TAF weather

Enter ICAO airport designator
Station Type Date Time Source
LEXJ METAR 2019/12/08 01:00 UTC NOAA

LEXJ 080100Z AUTO 00000KT 6000 NCD 10/07 Q1022


Station Type Date Time Source
LEXJ Decoded METAR 2019/12/08 01:00 UTC NOAA

Santander / Parayas, Spain (LEXJ) 43-26N 003-49W 9M
Dec 07, 2019 - 08:00 PM EST / 2019.12.08 0100 UTC
Wind: Calm:0
Visibility: 3 mile(s):0
Temperature: 50 F (10 C)
Dew Point: 44 F (7 C)
Relative Humidity: 81%
Pressure (altimeter): 30.18 in. Hg (1022 hPa)
ob: LEXJ 080100Z AUTO 00000KT 6000 NCD 10/07 Q1022
cycle: 1

Station Type Date Time Source
LEXJ TAF 2019/12/07 21:27 UTC NOAA

TAF TAF LEXJ 072000Z 0721/0821 20008KT 9999 SCT030 BKN050 TX15/0815Z TN09/0805Z PROB40
TEMPO 0810/0818 3000 RA BKN010 PROB40
TEMPO 0810/0819 30010KT

Example: see airport list